sensor_id;sensor_type;location;lat;lon;timestamp;P1;durP1;ratioP1;P2;durP2;ratioP2
1785;SDS011;890;48.158;11.540;2022-12-29T00:01:55;2.53;;;2.30;;
1785;SDS011;890;48.158;11.540;2022-12-29T00:04:21;2.67;;;2.47;;
1785;SDS011;890;48.158;11.540;2022-12-29T00:06:47;2.30;;;2.03;;
1785;SDS011;890;48.158;11.540;2022-12-29T00:09:13;2.37;;;1.83;;
1785;SDS011;890;48.158;11.540;2022-12-29T00:11:40;2.80;;;2.47;;
1785;SDS011;890;48.158;11.540;2022-12-29T00:14:08;2.10;;;1.90;;
1785;SDS011;890;48.158;11.540;2022-12-29T00:16:53;2.90;;;2.20;;
1785;SDS011;890;48.158;11.540;2022-12-29T00:19:19;2.50;;;2.00;;
1785;SDS011;890;48.158;11.540;2022-12-29T00:22:04;2.90;;;2.03;;
1785;SDS011;890;48.158;11.540;2022-12-29T00:24:48;2.20;;;1.90;;
1785;SDS011;890;48.158;11.540;2022-12-29T00:27:26;2.30;;;1.77;;
1785;SDS011;890;48.158;11.540;2022-12-29T00:30:17;1.70;;;1.60;;
1785;SDS011;890;48.158;11.540;2022-12-29T00:33:13;2.07;;;1.60;;
1785;SDS011;890;48.158;11.540;2022-12-29T00:38:58;2.83;;;1.80;;
1785;SDS011;890;48.158;11.540;2022-12-29T00:41:46;1.43;;;1.30;;
1785;SDS011;890;48.158;11.540;2022-12-29T00:44:31;2.00;;;1.80;;
1785;SDS011;890;48.158;11.540;2022-12-29T00:46:57;2.20;;;1.53;;
1785;SDS011;890;48.158;11.540;2022-12-29T00:49:27;1.70;;;1.40;;
1785;SDS011;890;48.158;11.540;2022-12-29T00:51:57;1.30;;;1.20;;
1785;SDS011;890;48.158;11.540;2022-12-29T00:54:24;1.60;;;1.30;;
1785;SDS011;890;48.158;11.540;2022-12-29T00:56:50;1.80;;;1.47;;
1785;SDS011;890;48.158;11.540;2022-12-29T00:59:17;1.80;;;1.40;;
1785;SDS011;890;48.158;11.540;2022-12-29T01:01:43;1.83;;;1.57;;
1785;SDS011;890;48.158;11.540;2022-12-29T01:04:10;2.00;;;1.70;;
1785;SDS011;890;48.158;11.540;2022-12-29T01:06:39;1.53;;;1.33;;
1785;SDS011;890;48.158;11.540;2022-12-29T01:09:05;1.57;;;1.37;;
1785;SDS011;890;48.158;11.540;2022-12-29T01:11:50;1.40;;;1.30;;
1785;SDS011;890;48.158;11.540;2022-12-29T01:14:16;1.60;;;1.10;;
1785;SDS011;890;48.158;11.540;2022-12-29T01:16:42;1.33;;;1.23;;
1785;SDS011;890;48.158;11.540;2022-12-29T01:19:08;1.73;;;1.57;;
1785;SDS011;890;48.158;11.540;2022-12-29T01:21:34;1.67;;;1.43;;
1785;SDS011;890;48.158;11.540;2022-12-29T01:24:00;1.80;;;1.40;;
1785;SDS011;890;48.158;11.540;2022-12-29T01:26:26;2.10;;;1.60;;
1785;SDS011;890;48.158;11.540;2022-12-29T01:28:51;1.47;;;1.37;;
1785;SDS011;890;48.158;11.540;2022-12-29T01:31:17;2.30;;;1.40;;
1785;SDS011;890;48.158;11.540;2022-12-29T01:33:43;1.60;;;1.50;;
1785;SDS011;890;48.158;11.540;2022-12-29T01:36:12;1.73;;;1.30;;
1785;SDS011;890;48.158;11.540;2022-12-29T01:38:39;1.40;;;1.30;;
1785;SDS011;890;48.158;11.540;2022-12-29T01:41:06;1.50;;;1.40;;
1785;SDS011;890;48.158;11.540;2022-12-29T01:43:40;1.67;;;1.57;;
1785;SDS011;890;48.158;11.540;2022-12-29T01:46:25;1.87;;;1.47;;
1785;SDS011;890;48.158;11.540;2022-12-29T01:49:13;1.50;;;1.17;;
1785;SDS011;890;48.158;11.540;2022-12-29T01:51:41;1.70;;;1.40;;
1785;SDS011;890;48.158;11.540;2022-12-29T01:54:14;1.47;;;1.27;;
1785;SDS011;890;48.158;11.540;2022-12-29T01:56:44;1.70;;;1.13;;
1785;SDS011;890;48.158;11.540;2022-12-29T01:59:12;1.50;;;1.40;;
1785;SDS011;890;48.158;11.540;2022-12-29T02:01:42;1.47;;;1.37;;
1785;SDS011;890;48.158;11.540;2022-12-29T02:04:09;1.57;;;1.00;;
1785;SDS011;890;48.158;11.540;2022-12-29T02:06:39;1.87;;;1.10;;
1785;SDS011;890;48.158;11.540;2022-12-29T02:09:10;1.20;;;1.10;;
1785;SDS011;890;48.158;11.540;2022-12-29T02:11:35;1.27;;;1.13;;
1785;SDS011;890;48.158;11.540;2022-12-29T02:14:04;1.90;;;1.20;;
1785;SDS011;890;48.158;11.540;2022-12-29T02:27:09;1.03;;;0.87;;
1785;SDS011;890;48.158;11.540;2022-12-29T02:32:45;1.67;;;1.30;;
1785;SDS011;890;48.158;11.540;2022-12-29T02:35:33;1.73;;;1.27;;
1785;SDS011;890;48.158;11.540;2022-12-29T02:46:31;1.23;;;1.10;;
1785;SDS011;890;48.158;11.540;2022-12-29T02:49:02;1.40;;;1.30;;
1785;SDS011;890;48.158;11.540;2022-12-29T02:52:00;1.57;;;1.20;;
1785;SDS011;890;48.158;11.540;2022-12-29T02:54:48;1.33;;;1.10;;
1785;SDS011;890;48.158;11.540;2022-12-29T02:59:46;1.10;;;1.00;;
1785;SDS011;890;48.158;11.540;2022-12-29T03:11:12;1.30;;;1.20;;
1785;SDS011;890;48.158;11.540;2022-12-29T03:14:17;1.20;;;1.00;;
1785;SDS011;890;48.158;11.540;2022-12-29T03:19:57;2.23;;;1.20;;
1785;SDS011;890;48.158;11.540;2022-12-29T03:22:27;1.33;;;1.10;;
1785;SDS011;890;48.158;11.540;2022-12-29T03:25:10;2.10;;;1.10;;
1785;SDS011;890;48.158;11.540;2022-12-29T03:27:48;1.60;;;1.20;;
1785;SDS011;890;48.158;11.540;2022-12-29T03:30:17;1.70;;;1.17;;
1785;SDS011;890;48.158;11.540;2022-12-29T03:32:45;1.23;;;1.10;;
1785;SDS011;890;48.158;11.540;2022-12-29T03:35:14;2.07;;;1.43;;
1785;SDS011;890;48.158;11.540;2022-12-29T03:37:49;1.47;;;1.10;;
1785;SDS011;890;48.158;11.540;2022-12-29T03:40:20;1.40;;;1.30;;
1785;SDS011;890;48.158;11.540;2022-12-29T03:42:47;2.20;;;1.63;;
1785;SDS011;890;48.158;11.540;2022-12-29T03:45:13;2.70;;;1.30;;
1785;SDS011;890;48.158;11.540;2022-12-29T03:47:39;1.13;;;1.03;;
1785;SDS011;890;48.158;11.540;2022-12-29T03:50:05;1.50;;;1.20;;
1785;SDS011;890;48.158;11.540;2022-12-29T03:52:31;1.67;;;1.10;;
1785;SDS011;890;48.158;11.540;2022-12-29T03:54:56;2.10;;;1.50;;
1785;SDS011;890;48.158;11.540;2022-12-29T03:57:22;1.20;;;1.10;;
1785;SDS011;890;48.158;11.540;2022-12-29T03:59:47;1.97;;;1.07;;
1785;SDS011;890;48.158;11.540;2022-12-29T04:02:13;1.53;;;1.07;;
1785;SDS011;890;48.158;11.540;2022-12-29T04:04:39;1.13;;;1.00;;
1785;SDS011;890;48.158;11.540;2022-12-29T04:07:04;1.10;;;0.90;;
1785;SDS011;890;48.158;11.540;2022-12-29T04:09:30;1.37;;;1.27;;
1785;SDS011;890;48.158;11.540;2022-12-29T04:11:56;1.30;;;1.00;;
1785;SDS011;890;48.158;11.540;2022-12-29T04:14:22;1.00;;;0.90;;
1785;SDS011;890;48.158;11.540;2022-12-29T04:16:47;1.00;;;1.00;;
1785;SDS011;890;48.158;11.540;2022-12-29T04:19:13;1.43;;;1.20;;
1785;SDS011;890;48.158;11.540;2022-12-29T04:21:38;1.67;;;1.40;;
1785;SDS011;890;48.158;11.540;2022-12-29T04:24:05;1.00;;;0.90;;
1785;SDS011;890;48.158;11.540;2022-12-29T04:26:31;1.47;;;1.37;;
1785;SDS011;890;48.158;11.540;2022-12-29T04:28:57;1.20;;;1.10;;
1785;SDS011;890;48.158;11.540;2022-12-29T04:31:23;1.50;;;1.00;;
1785;SDS011;890;48.158;11.540;2022-12-29T04:33:49;1.87;;;1.20;;
1785;SDS011;890;48.158;11.540;2022-12-29T04:36:14;1.40;;;1.30;;
1785;SDS011;890;48.158;11.540;2022-12-29T04:38:40;1.00;;;0.90;;
1785;SDS011;890;48.158;11.540;2022-12-29T04:41:05;1.60;;;1.20;;
1785;SDS011;890;48.158;11.540;2022-12-29T04:43:31;1.43;;;1.23;;
1785;SDS011;890;48.158;11.540;2022-12-29T04:45:57;1.67;;;1.00;;
1785;SDS011;890;48.158;11.540;2022-12-29T04:48:22;1.30;;;1.13;;
1785;SDS011;890;48.158;11.540;2022-12-29T04:50:48;2.13;;;1.20;;
1785;SDS011;890;48.158;11.540;2022-12-29T04:53:14;1.20;;;1.00;;
1785;SDS011;890;48.158;11.540;2022-12-29T04:55:41;4.13;;;1.50;;
1785;SDS011;890;48.158;11.540;2022-12-29T04:58:06;1.30;;;1.17;;
1785;SDS011;890;48.158;11.540;2022-12-29T05:00:32;1.27;;;1.10;;
1785;SDS011;890;48.158;11.540;2022-12-29T05:02:58;1.50;;;0.97;;
1785;SDS011;890;48.158;11.540;2022-12-29T05:05:24;1.80;;;1.20;;
1785;SDS011;890;48.158;11.540;2022-12-29T05:07:49;1.93;;;1.23;;
1785;SDS011;890;48.158;11.540;2022-12-29T05:10:15;2.20;;;1.40;;
1785;SDS011;890;48.158;11.540;2022-12-29T05:12:41;1.23;;;1.10;;
1785;SDS011;890;48.158;11.540;2022-12-29T05:15:08;1.10;;;1.00;;
1785;SDS011;890;48.158;11.540;2022-12-29T05:17:35;1.40;;;1.00;;
1785;SDS011;890;48.158;11.540;2022-12-29T05:20:00;1.50;;;1.10;;
1785;SDS011;890;48.158;11.540;2022-12-29T05:22:26;2.00;;;1.13;;
1785;SDS011;890;48.158;11.540;2022-12-29T05:24:52;1.37;;;1.17;;
1785;SDS011;890;48.158;11.540;2022-12-29T05:27:17;1.43;;;1.20;;
1785;SDS011;890;48.158;11.540;2022-12-29T05:29:43;1.53;;;1.10;;
1785;SDS011;890;48.158;11.540;2022-12-29T05:32:08;1.40;;;1.10;;
1785;SDS011;890;48.158;11.540;2022-12-29T05:34:34;1.30;;;1.20;;
1785;SDS011;890;48.158;11.540;2022-12-29T05:36:59;2.43;;;1.20;;
1785;SDS011;890;48.158;11.540;2022-12-29T05:39:26;1.60;;;1.10;;
1785;SDS011;890;48.158;11.540;2022-12-29T05:41:51;1.53;;;1.13;;
1785;SDS011;890;48.158;11.540;2022-12-29T05:44:17;1.37;;;1.13;;
1785;SDS011;890;48.158;11.540;2022-12-29T05:46:42;0.90;;;0.90;;
1785;SDS011;890;48.158;11.540;2022-12-29T05:49:08;1.20;;;1.10;;
1785;SDS011;890;48.158;11.540;2022-12-29T05:51:34;3.63;;;1.40;;
1785;SDS011;890;48.158;11.540;2022-12-29T05:53:59;1.33;;;1.13;;
1785;SDS011;890;48.158;11.540;2022-12-29T05:56:25;2.13;;;1.23;;
1785;SDS011;890;48.158;11.540;2022-12-29T05:58:50;1.10;;;0.87;;
1785;SDS011;890;48.158;11.540;2022-12-29T06:01:16;1.40;;;1.20;;
1785;SDS011;890;48.158;11.540;2022-12-29T06:03:41;1.60;;;1.43;;
1785;SDS011;890;48.158;11.540;2022-12-29T06:06:07;1.73;;;1.20;;
1785;SDS011;890;48.158;11.540;2022-12-29T06:08:33;1.30;;;1.20;;
1785;SDS011;890;48.158;11.540;2022-12-29T06:10:58;1.30;;;1.20;;
1785;SDS011;890;48.158;11.540;2022-12-29T06:13:24;1.50;;;1.27;;
1785;SDS011;890;48.158;11.540;2022-12-29T06:15:50;1.23;;;1.00;;
1785;SDS011;890;48.158;11.540;2022-12-29T06:18:15;1.93;;;1.30;;
1785;SDS011;890;48.158;11.540;2022-12-29T06:20:41;1.20;;;1.10;;
1785;SDS011;890;48.158;11.540;2022-12-29T06:23:07;1.20;;;1.10;;
1785;SDS011;890;48.158;11.540;2022-12-29T06:25:33;1.83;;;1.30;;
1785;SDS011;890;48.158;11.540;2022-12-29T06:27:59;3.13;;;1.43;;
1785;SDS011;890;48.158;11.540;2022-12-29T06:30:24;7.03;;;1.60;;
1785;SDS011;890;48.158;11.540;2022-12-29T06:32:50;1.87;;;1.40;;
1785;SDS011;890;48.158;11.540;2022-12-29T06:35:16;1.50;;;1.10;;
1785;SDS011;890;48.158;11.540;2022-12-29T06:37:42;1.23;;;1.13;;
1785;SDS011;890;48.158;11.540;2022-12-29T06:40:08;2.20;;;1.47;;
1785;SDS011;890;48.158;11.540;2022-12-29T06:42:34;2.00;;;1.30;;
1785;SDS011;890;48.158;11.540;2022-12-29T06:45:00;1.97;;;1.50;;
1785;SDS011;890;48.158;11.540;2022-12-29T06:47:26;1.57;;;1.40;;
1785;SDS011;890;48.158;11.540;2022-12-29T06:49:52;1.60;;;1.50;;
1785;SDS011;890;48.158;11.540;2022-12-29T06:52:17;1.50;;;1.27;;
1785;SDS011;890;48.158;11.540;2022-12-29T06:54:43;1.63;;;1.37;;
1785;SDS011;890;48.158;11.540;2022-12-29T06:57:08;1.90;;;1.37;;
1785;SDS011;890;48.158;11.540;2022-12-29T06:59:34;2.03;;;1.60;;
1785;SDS011;890;48.158;11.540;2022-12-29T07:02:00;1.73;;;1.43;;
1785;SDS011;890;48.158;11.540;2022-12-29T07:04:27;1.70;;;1.60;;
1785;SDS011;890;48.158;11.540;2022-12-29T07:06:53;1.80;;;1.63;;
1785;SDS011;890;48.158;11.540;2022-12-29T07:09:19;2.17;;;1.40;;
1785;SDS011;890;48.158;11.540;2022-12-29T07:11:45;1.70;;;1.60;;
1785;SDS011;890;48.158;11.540;2022-12-29T07:14:11;1.50;;;1.40;;
1785;SDS011;890;48.158;11.540;2022-12-29T07:16:36;1.70;;;1.50;;
1785;SDS011;890;48.158;11.540;2022-12-29T07:19:02;2.23;;;1.70;;
1785;SDS011;890;48.158;11.540;2022-12-29T07:21:28;3.60;;;1.30;;
1785;SDS011;890;48.158;11.540;2022-12-29T07:23:54;2.20;;;1.73;;
1785;SDS011;890;48.158;11.540;2022-12-29T07:26:20;1.67;;;1.00;;
1785;SDS011;890;48.158;11.540;2022-12-29T07:28:46;4.10;;;1.47;;
1785;SDS011;890;48.158;11.540;2022-12-29T07:31:16;2.00;;;1.70;;
1785;SDS011;890;48.158;11.540;2022-12-29T07:33:43;1.50;;;1.27;;
1785;SDS011;890;48.158;11.540;2022-12-29T07:36:10;1.63;;;1.20;;
1785;SDS011;890;48.158;11.540;2022-12-29T07:38:36;2.30;;;1.67;;
1785;SDS011;890;48.158;11.540;2022-12-29T07:41:01;2.50;;;1.73;;
1785;SDS011;890;48.158;11.540;2022-12-29T07:43:27;3.77;;;2.60;;
1785;SDS011;890;48.158;11.540;2022-12-29T07:45:53;2.67;;;1.93;;
1785;SDS011;890;48.158;11.540;2022-12-29T07:48:18;1.77;;;1.40;;
1785;SDS011;890;48.158;11.540;2022-12-29T07:50:44;3.43;;;2.17;;
1785;SDS011;890;48.158;11.540;2022-12-29T07:53:10;2.80;;;1.97;;
1785;SDS011;890;48.158;11.540;2022-12-29T07:55:35;4.63;;;2.90;;
1785;SDS011;890;48.158;11.540;2022-12-29T07:58:01;5.53;;;2.50;;
1785;SDS011;890;48.158;11.540;2022-12-29T08:00:26;3.90;;;2.20;;
1785;SDS011;890;48.158;11.540;2022-12-29T08:02:52;3.00;;;1.97;;
1785;SDS011;890;48.158;11.540;2022-12-29T08:05:18;2.30;;;1.47;;
1785;SDS011;890;48.158;11.540;2022-12-29T08:07:43;2.77;;;1.80;;
1785;SDS011;890;48.158;11.540;2022-12-29T08:10:09;1.90;;;1.70;;
1785;SDS011;890;48.158;11.540;2022-12-29T08:12:37;4.17;;;3.77;;
1785;SDS011;890;48.158;11.540;2022-12-29T08:15:12;5.43;;;2.97;;
1785;SDS011;890;48.158;11.540;2022-12-29T08:17:38;2.33;;;1.83;;
1785;SDS011;890;48.158;11.540;2022-12-29T08:20:03;3.00;;;1.50;;
1785;SDS011;890;48.158;11.540;2022-12-29T08:22:30;1.33;;;1.23;;
1785;SDS011;890;48.158;11.540;2022-12-29T08:24:55;1.57;;;1.30;;
1785;SDS011;890;48.158;11.540;2022-12-29T08:27:23;1.40;;;1.30;;
1785;SDS011;890;48.158;11.540;2022-12-29T08:29:50;1.30;;;1.20;;
1785;SDS011;890;48.158;11.540;2022-12-29T08:32:15;1.47;;;1.30;;
1785;SDS011;890;48.158;11.540;2022-12-29T08:34:44;2.70;;;1.50;;
1785;SDS011;890;48.158;11.540;2022-12-29T08:37:10;2.07;;;1.30;;
1785;SDS011;890;48.158;11.540;2022-12-29T08:39:39;3.80;;;1.80;;
1785;SDS011;890;48.158;11.540;2022-12-29T08:42:04;1.27;;;1.03;;
1785;SDS011;890;48.158;11.540;2022-12-29T08:44:33;1.70;;;1.60;;
1785;SDS011;890;48.158;11.540;2022-12-29T08:46:59;2.43;;;1.50;;
1785;SDS011;890;48.158;11.540;2022-12-29T08:49:24;2.57;;;1.60;;
1785;SDS011;890;48.158;11.540;2022-12-29T08:51:50;2.20;;;1.77;;
1785;SDS011;890;48.158;11.540;2022-12-29T08:54:15;3.10;;;2.17;;
1785;SDS011;890;48.158;11.540;2022-12-29T08:56:41;2.67;;;1.90;;
1785;SDS011;890;48.158;11.540;2022-12-29T08:59:07;7.17;;;3.70;;
1785;SDS011;890;48.158;11.540;2022-12-29T09:01:33;5.20;;;2.53;;
1785;SDS011;890;48.158;11.540;2022-12-29T09:04:01;1.63;;;1.40;;
1785;SDS011;890;48.158;11.540;2022-12-29T09:06:26;1.97;;;1.77;;
1785;SDS011;890;48.158;11.540;2022-12-29T09:08:53;2.27;;;1.60;;
1785;SDS011;890;48.158;11.540;2022-12-29T09:11:20;2.70;;;1.87;;
1785;SDS011;890;48.158;11.540;2022-12-29T09:13:47;2.23;;;1.70;;
1785;SDS011;890;48.158;11.540;2022-12-29T09:16:13;4.00;;;2.30;;
1785;SDS011;890;48.158;11.540;2022-12-29T09:18:39;3.77;;;2.67;;
1785;SDS011;890;48.158;11.540;2022-12-29T09:21:07;4.97;;;2.23;;
1785;SDS011;890;48.158;11.540;2022-12-29T09:23:34;1.70;;;1.50;;
1785;SDS011;890;48.158;11.540;2022-12-29T09:26:00;1.83;;;1.40;;
1785;SDS011;890;48.158;11.540;2022-12-29T09:28:26;2.27;;;2.10;;
1785;SDS011;890;48.158;11.540;2022-12-29T09:30:54;4.83;;;1.53;;
1785;SDS011;890;48.158;11.540;2022-12-29T09:33:20;2.13;;;1.70;;
1785;SDS011;890;48.158;11.540;2022-12-29T09:35:50;2.63;;;1.50;;
1785;SDS011;890;48.158;11.540;2022-12-29T09:38:17;2.13;;;1.50;;
1785;SDS011;890;48.158;11.540;2022-12-29T09:40:44;2.30;;;1.60;;
1785;SDS011;890;48.158;11.540;2022-12-29T09:45:58;1.60;;;1.20;;
1785;SDS011;890;48.158;11.540;2022-12-29T09:48:47;1.57;;;1.47;;
1785;SDS011;890;48.158;11.540;2022-12-29T09:51:17;2.17;;;1.27;;
1785;SDS011;890;48.158;11.540;2022-12-29T09:53:55;2.20;;;1.53;;
1785;SDS011;890;48.158;11.540;2022-12-29T09:56:25;3.43;;;1.40;;
1785;SDS011;890;48.158;11.540;2022-12-29T09:58:58;1.80;;;1.40;;
1785;SDS011;890;48.158;11.540;2022-12-29T10:01:34;1.47;;;1.20;;
1785;SDS011;890;48.158;11.540;2022-12-29T10:04:06;2.40;;;1.23;;
1785;SDS011;890;48.158;11.540;2022-12-29T10:06:46;3.03;;;1.60;;
1785;SDS011;890;48.158;11.540;2022-12-29T10:09:18;3.60;;;2.00;;
1785;SDS011;890;48.158;11.540;2022-12-29T10:25:22;2.00;;;1.30;;
1785;SDS011;890;48.158;11.540;2022-12-29T10:27:50;1.30;;;1.20;;
1785;SDS011;890;48.158;11.540;2022-12-29T10:30:18;2.63;;;1.30;;
1785;SDS011;890;48.158;11.540;2022-12-29T10:32:49;1.70;;;1.40;;
1785;SDS011;890;48.158;11.540;2022-12-29T10:35:18;1.77;;;1.30;;
1785;SDS011;890;48.158;11.540;2022-12-29T10:40:29;2.40;;;1.70;;
1785;SDS011;890;48.158;11.540;2022-12-29T10:45:43;4.70;;;1.73;;
1785;SDS011;890;48.158;11.540;2022-12-29T10:48:11;1.70;;;1.43;;
1785;SDS011;890;48.158;11.540;2022-12-29T10:50:44;1.73;;;1.63;;
1785;SDS011;890;48.158;11.540;2022-12-29T10:53:12;2.47;;;1.47;;
1785;SDS011;890;48.158;11.540;2022-12-29T10:55:48;3.03;;;1.80;;
1785;SDS011;890;48.158;11.540;2022-12-29T10:58:15;1.37;;;1.20;;
1785;SDS011;890;48.158;11.540;2022-12-29T11:00:41;3.27;;;1.50;;
1785;SDS011;890;48.158;11.540;2022-12-29T11:06:01;1.73;;;1.40;;
1785;SDS011;890;48.158;11.540;2022-12-29T11:08:40;1.80;;;1.70;;
1785;SDS011;890;48.158;11.540;2022-12-29T11:11:21;2.80;;;2.20;;
1785;SDS011;890;48.158;11.540;2022-12-29T11:13:54;1.70;;;1.60;;
1785;SDS011;890;48.158;11.540;2022-12-29T11:16:30;1.93;;;1.63;;
1785;SDS011;890;48.158;11.540;2022-12-29T11:18:59;2.00;;;1.63;;
1785;SDS011;890;48.158;11.540;2022-12-29T11:27:37;1.97;;;1.57;;
1785;SDS011;890;48.158;11.540;2022-12-29T11:29:47;1.50;;;1.37;;
1785;SDS011;890;48.158;11.540;2022-12-29T11:32:18;1.63;;;1.27;;
1785;SDS011;890;48.158;11.540;2022-12-29T11:34:44;2.10;;;1.57;;
1785;SDS011;890;48.158;11.540;2022-12-29T11:37:17;1.70;;;1.60;;
1785;SDS011;890;48.158;11.540;2022-12-29T11:45:05;2.27;;;1.60;;
1785;SDS011;890;48.158;11.540;2022-12-29T11:47:41;2.50;;;1.37;;
1785;SDS011;890;48.158;11.540;2022-12-29T11:50:16;1.47;;;1.30;;
1785;SDS011;890;48.158;11.540;2022-12-29T11:52:44;2.13;;;1.10;;
1785;SDS011;890;48.158;11.540;2022-12-29T11:55:18;1.60;;;1.40;;
1785;SDS011;890;48.158;11.540;2022-12-29T11:57:46;1.30;;;1.07;;
1785;SDS011;890;48.158;11.540;2022-12-29T12:00:16;1.83;;;1.30;;
1785;SDS011;890;48.158;11.540;2022-12-29T12:02:48;2.43;;;1.50;;
1785;SDS011;890;48.158;11.540;2022-12-29T12:05:28;1.40;;;1.27;;
1785;SDS011;890;48.158;11.540;2022-12-29T12:08:11;2.77;;;1.30;;
1785;SDS011;890;48.158;11.540;2022-12-29T12:10:48;2.80;;;1.70;;
1785;SDS011;890;48.158;11.540;2022-12-29T12:13:35;1.60;;;1.30;;
1785;SDS011;890;48.158;11.540;2022-12-29T12:16:04;2.00;;;1.50;;
1785;SDS011;890;48.158;11.540;2022-12-29T12:18:41;2.20;;;1.40;;
1785;SDS011;890;48.158;11.540;2022-12-29T12:21:15;3.63;;;1.40;;
1785;SDS011;890;48.158;11.540;2022-12-29T12:26:21;1.70;;;1.20;;
1785;SDS011;890;48.158;11.540;2022-12-29T12:28:59;1.53;;;1.23;;
1785;SDS011;890;48.158;11.540;2022-12-29T12:31:56;4.80;;;1.70;;
1785;SDS011;890;48.158;11.540;2022-12-29T12:34:39;1.23;;;1.10;;
1785;SDS011;890;48.158;11.540;2022-12-29T12:48:07;1.80;;;1.40;;
1785;SDS011;890;48.158;11.540;2022-12-29T12:53:26;1.70;;;1.30;;
1785;SDS011;890;48.158;11.540;2022-12-29T12:58:41;2.40;;;1.23;;
1785;SDS011;890;48.158;11.540;2022-12-29T13:13:04;1.17;;;1.07;;
1785;SDS011;890;48.158;11.540;2022-12-29T13:21:09;1.43;;;1.33;;
1785;SDS011;890;48.158;11.540;2022-12-29T13:23:44;5.30;;;1.30;;
1785;SDS011;890;48.158;11.540;2022-12-29T13:26:16;2.03;;;1.30;;
1785;SDS011;890;48.158;11.540;2022-12-29T13:29:10;1.30;;;1.10;;
1785;SDS011;890;48.158;11.540;2022-12-29T13:34:30;1.30;;;1.00;;
1785;SDS011;890;48.158;11.540;2022-12-29T13:37:13;1.53;;;1.07;;
1785;SDS011;890;48.158;11.540;2022-12-29T13:39:55;1.40;;;1.20;;
1785;SDS011;890;48.158;11.540;2022-12-29T13:42:25;1.40;;;1.10;;
1785;SDS011;890;48.158;11.540;2022-12-29T13:44:57;1.47;;;1.13;;
1785;SDS011;890;48.158;11.540;2022-12-29T13:50:31;2.40;;;1.10;;
1785;SDS011;890;48.158;11.540;2022-12-29T13:53:04;1.57;;;1.00;;
1785;SDS011;890;48.158;11.540;2022-12-29T13:55:40;2.70;;;1.10;;
1785;SDS011;890;48.158;11.540;2022-12-29T13:58:30;1.40;;;1.20;;
1785;SDS011;890;48.158;11.540;2022-12-29T14:01:01;1.30;;;1.00;;
1785;SDS011;890;48.158;11.540;2022-12-29T14:03:44;2.20;;;2.00;;
1785;SDS011;890;48.158;11.540;2022-12-29T14:08:51;1.47;;;1.27;;
1785;SDS011;890;48.158;11.540;2022-12-29T14:11:23;2.00;;;1.00;;
1785;SDS011;890;48.158;11.540;2022-12-29T14:13:54;1.50;;;1.30;;
1785;SDS011;890;48.158;11.540;2022-12-29T14:16:31;1.47;;;1.10;;
1785;SDS011;890;48.158;11.540;2022-12-29T14:19:04;2.00;;;1.20;;
1785;SDS011;890;48.158;11.540;2022-12-29T14:21:36;2.10;;;1.17;;
1785;SDS011;890;48.158;11.540;2022-12-29T14:34:46;2.80;;;1.47;;
1785;SDS011;890;48.158;11.540;2022-12-29T14:37:26;2.33;;;1.80;;
1785;SDS011;890;48.158;11.540;2022-12-29T14:40:29;2.40;;;1.70;;
1785;SDS011;890;48.158;11.540;2022-12-29T14:42:50;2.00;;;1.67;;
1785;SDS011;890;48.158;11.540;2022-12-29T14:47:47;2.60;;;1.57;;
1785;SDS011;890;48.158;11.540;2022-12-29T14:52:45;3.13;;;2.00;;
1785;SDS011;890;48.158;11.540;2022-12-29T14:57:43;8.57;;;4.90;;
1785;SDS011;890;48.158;11.540;2022-12-29T15:00:15;5.23;;;4.70;;
1785;SDS011;890;48.158;11.540;2022-12-29T15:02:43;5.50;;;3.70;;
1785;SDS011;890;48.158;11.540;2022-12-29T15:07:58;3.03;;;2.07;;
1785;SDS011;890;48.158;11.540;2022-12-29T15:10:25;3.63;;;3.10;;
1785;SDS011;890;48.158;11.540;2022-12-29T15:13:02;3.97;;;2.80;;
1785;SDS011;890;48.158;11.540;2022-12-29T15:15:35;3.60;;;2.70;;
1785;SDS011;890;48.158;11.540;2022-12-29T15:18:13;6.07;;;2.63;;
1785;SDS011;890;48.158;11.540;2022-12-29T15:20:50;2.90;;;2.50;;
1785;SDS011;890;48.158;11.540;2022-12-29T15:23:19;2.60;;;2.27;;
1785;SDS011;890;48.158;11.540;2022-12-29T15:25:49;3.83;;;2.43;;
1785;SDS011;890;48.158;11.540;2022-12-29T15:28:21;4.20;;;2.40;;
1785;SDS011;890;48.158;11.540;2022-12-29T15:30:51;3.67;;;2.50;;
1785;SDS011;890;48.158;11.540;2022-12-29T15:33:28;4.30;;;2.93;;
1785;SDS011;890;48.158;11.540;2022-12-29T15:35:54;9.00;;;2.97;;
1785;SDS011;890;48.158;11.540;2022-12-29T15:38:30;3.33;;;2.40;;
1785;SDS011;890;48.158;11.540;2022-12-29T15:40:57;4.03;;;2.80;;
1785;SDS011;890;48.158;11.540;2022-12-29T15:43:36;6.60;;;2.43;;
1785;SDS011;890;48.158;11.540;2022-12-29T15:46:03;3.47;;;2.43;;
1785;SDS011;890;48.158;11.540;2022-12-29T15:48:29;3.10;;;2.30;;
1785;SDS011;890;48.158;11.540;2022-12-29T15:50:56;2.90;;;2.50;;
1785;SDS011;890;48.158;11.540;2022-12-29T15:53:30;5.83;;;2.73;;
1785;SDS011;890;48.158;11.540;2022-12-29T15:55:58;4.67;;;3.10;;
1785;SDS011;890;48.158;11.540;2022-12-29T15:58:32;3.60;;;2.70;;
1785;SDS011;890;48.158;11.540;2022-12-29T16:01:15;4.03;;;2.77;;
1785;SDS011;890;48.158;11.540;2022-12-29T16:03:47;9.23;;;6.77;;
1785;SDS011;890;48.158;11.540;2022-12-29T16:09:03;10.40;;;7.13;;
1785;SDS011;890;48.158;11.540;2022-12-29T16:11:31;5.83;;;4.33;;
1785;SDS011;890;48.158;11.540;2022-12-29T16:14:00;5.50;;;3.93;;
1785;SDS011;890;48.158;11.540;2022-12-29T16:16:28;4.70;;;3.40;;
1785;SDS011;890;48.158;11.540;2022-12-29T16:19:03;7.17;;;4.20;;
1785;SDS011;890;48.158;11.540;2022-12-29T16:21:33;4.57;;;3.67;;
1785;SDS011;890;48.158;11.540;2022-12-29T16:24:08;3.20;;;2.40;;
1785;SDS011;890;48.158;11.540;2022-12-29T16:26:38;2.53;;;2.33;;
1785;SDS011;890;48.158;11.540;2022-12-29T16:29:11;3.13;;;2.53;;
1785;SDS011;890;48.158;11.540;2022-12-29T16:31:54;6.10;;;2.80;;
1785;SDS011;890;48.158;11.540;2022-12-29T16:34:33;4.07;;;2.83;;
1785;SDS011;890;48.158;11.540;2022-12-29T16:37:27;3.40;;;2.30;;
1785;SDS011;890;48.158;11.540;2022-12-29T16:43:03;3.60;;;2.97;;
1785;SDS011;890;48.158;11.540;2022-12-29T16:50:39;2.60;;;2.20;;
1785;SDS011;890;48.158;11.540;2022-12-29T16:53:06;3.53;;;2.53;;
1785;SDS011;890;48.158;11.540;2022-12-29T16:55:52;4.77;;;3.17;;
1785;SDS011;890;48.158;11.540;2022-12-29T16:58:21;4.10;;;3.40;;
1785;SDS011;890;48.158;11.540;2022-12-29T17:00:49;4.17;;;2.90;;
1785;SDS011;890;48.158;11.540;2022-12-29T17:03:19;4.67;;;3.50;;
1785;SDS011;890;48.158;11.540;2022-12-29T17:05:45;6.33;;;3.30;;
1785;SDS011;890;48.158;11.540;2022-12-29T17:08:18;3.30;;;3.00;;
1785;SDS011;890;48.158;11.540;2022-12-29T17:10:48;3.53;;;2.40;;
1785;SDS011;890;48.158;11.540;2022-12-29T17:13:37;2.60;;;2.40;;
1785;SDS011;890;48.158;11.540;2022-12-29T17:16:03;4.67;;;2.53;;
1785;SDS011;890;48.158;11.540;2022-12-29T17:18:34;4.60;;;2.30;;
1785;SDS011;890;48.158;11.540;2022-12-29T17:21:00;3.80;;;2.73;;
1785;SDS011;890;48.158;11.540;2022-12-29T17:23:25;4.27;;;3.30;;
1785;SDS011;890;48.158;11.540;2022-12-29T17:25:51;4.93;;;3.80;;
1785;SDS011;890;48.158;11.540;2022-12-29T17:30:46;5.03;;;3.50;;
1785;SDS011;890;48.158;11.540;2022-12-29T17:33:13;5.00;;;4.40;;
1785;SDS011;890;48.158;11.540;2022-12-29T17:35:41;7.70;;;5.80;;
1785;SDS011;890;48.158;11.540;2022-12-29T17:38:14;9.70;;;6.50;;
1785;SDS011;890;48.158;11.540;2022-12-29T17:40:43;11.73;;;8.97;;
1785;SDS011;890;48.158;11.540;2022-12-29T17:43:10;10.03;;;6.33;;
1785;SDS011;890;48.158;11.540;2022-12-29T17:45:38;6.93;;;4.60;;
1785;SDS011;890;48.158;11.540;2022-12-29T17:48:11;6.47;;;3.70;;
1785;SDS011;890;48.158;11.540;2022-12-29T17:50:38;4.50;;;2.97;;
1785;SDS011;890;48.158;11.540;2022-12-29T17:53:05;3.70;;;2.53;;
1785;SDS011;890;48.158;11.540;2022-12-29T17:55:35;3.00;;;2.67;;
1785;SDS011;890;48.158;11.540;2022-12-29T17:58:01;5.07;;;2.73;;
1785;SDS011;890;48.158;11.540;2022-12-29T18:00:28;4.70;;;2.80;;
1785;SDS011;890;48.158;11.540;2022-12-29T18:02:55;3.90;;;3.03;;
1785;SDS011;890;48.158;11.540;2022-12-29T18:05:25;3.90;;;2.90;;
1785;SDS011;890;48.158;11.540;2022-12-29T18:07:53;4.17;;;3.20;;